Hacienda La Arboleda, Puerto Rico
Current Conditions -  °F | °C
As of 8:56 AM on Monday 22 Dec 2014 (Local Time) from TJSJ Reporting Station
Scattered Clouds Scattered Clouds  
Wind Chill: 80°   Ceiling: Unl
Heat Index: 84°   Visibility: 10mi
Dew Point: 73°   Wind: 0mph
Humidity: 79%   Direction: NA
Pressure: 30.07"   Gusts: NA
Location:  18.4061°N, 66.3012°W
Report Text: TJSJ 221256Z 00000KT 10SM FEW028 SCT033 SCT065 27/23 A3007 RMK AO2 SLP182 SHRA DSNT SE T02670228
Loading
Personal Weather Stations






























Interactive Weather Map New forecast layout! Learn more

10-Day Weather Forecast

Advertisements
Track Severe Weather on mobile